Aérodrome :
LOGIN :

S'inscrire | Disclaimer

   EN    FR    IT 

 










Légende :    VFR   VFR Marginal   IFR   IFR Intensif   IFR Très Intensif
Visi : 
Plafond : 
>= 8 km
>= 3000ft
5 à 8 km
1000 à 3000 ft
1500m à 5 km
500 à 1000 ft
800 à 1500m
200 à 500 ft
< 800m
< 200 ft
Symboles :   Orages  Brouillard  Fortes neiges  Fortes précipitations  Vent > 20 kt
SIGMETs :   Divers  Orages  Givrage  Turbulence  Onde Orograph.  Cendres Volcan.






- Altitude de l'aérodrome : 157 ft
- Code IATA : SXF


EDDB - Berlin Schönefeld

DERNIER METAR :
  • 201220Z 31004KT 7000 SCT004 BKN005 06/05 Q1017 TEMPO 4500 -DZ BKN004

METARs EXPIRÉS :
  • 201150Z 30004KT 280V340 8000 SCT005 BKN007 06/05 Q1018 TEMPO 4500 -DZ BKN004
  • 201120Z 31003KT 6000 FEW003 BKN008 06/05 Q1018 TEMPO 4500 -DZ BKN004
  • 201050Z 31003KT 9999 -DZ FEW005 BKN008 06/05 Q1018 TEMPO 4500 -DZ
  • 201020Z 33003KT 290V360 9999 FEW004 SCT008 BKN012 06/04 Q1018 TEMPO BKN008
  • 200950Z 33003KT 280V020 9999 FEW004 BKN008 BKN014 06/04 Q1019 TEMPO SCT008

TAF TAF EDDB
Valide du 20 à 12h jusqu'au 21 à 12h UTC


201100Z 2012/2112 34003KT 8000 BKN008
TEMPO 2012/2018 2500 -DZ BKN004
BECMG 2018/2020 05005KT 3000 BR BKN004
TEMPO 2020/2109 1200 -DZ



MET'MAP, la Météo Aéronautique d'un coup d'oeil ! - Copyright ORBIFLY Décembre 2007 - Disclaimer

ORBIFLY MET'MAP TEAM :

Programmation & Développement : Alexandra Zaïnal
Conception & Développement : Baudouin d'Aumeries
Co-Programmation & Développement : Marc-Olivier Méhu
Soutien technique & logistique : Manuel Goepfert

Contact : metmap@orbifly.com




SOURCES & CREDITS :

   NOAA